sensor_id;sensor_type;location;lat;lon;timestamp;temperature;humidity
7030;DHT22;3556;53.500;10.176;2023-02-21T00:02:40;9.00;99.90
7030;DHT22;3556;53.500;10.176;2023-02-21T00:05:24;9.00;99.90
7030;DHT22;3556;53.500;10.176;2023-02-21T00:08:08;9.00;99.90
7030;DHT22;3556;53.500;10.176;2023-02-21T00:10:52;9.00;99.90
7030;DHT22;3556;53.500;10.176;2023-02-21T00:13:37;9.00;99.90
7030;DHT22;3556;53.500;10.176;2023-02-21T00:16:21;9.00;99.90
7030;DHT22;3556;53.500;10.176;2023-02-21T00:19:06;9.00;99.90
7030;DHT22;3556;53.500;10.176;2023-02-21T00:21:51;9.00;99.90
7030;DHT22;3556;53.500;10.176;2023-02-21T00:24:35;9.00;99.90
7030;DHT22;3556;53.500;10.176;2023-02-21T00:27:19;9.00;99.90
7030;DHT22;3556;53.500;10.176;2023-02-21T00:30:04;9.00;99.90
7030;DHT22;3556;53.500;10.176;2023-02-21T00:32:48;8.90;99.90
7030;DHT22;3556;53.500;10.176;2023-02-21T00:35:32;8.90;99.90
7030;DHT22;3556;53.500;10.176;2023-02-21T00:38:16;8.90;99.90
7030;DHT22;3556;53.500;10.176;2023-02-21T00:41:00;8.90;99.90
7030;DHT22;3556;53.500;10.176;2023-02-21T00:43:45;8.90;99.90
7030;DHT22;3556;53.500;10.176;2023-02-21T00:46:28;8.90;99.90
7030;DHT22;3556;53.500;10.176;2023-02-21T00:49:13;8.90;99.90
7030;DHT22;3556;53.500;10.176;2023-02-21T00:51:56;8.90;99.90
7030;DHT22;3556;53.500;10.176;2023-02-21T00:54:41;8.90;99.90
7030;DHT22;3556;53.500;10.176;2023-02-21T00:57:25;8.90;99.90
7030;DHT22;3556;53.500;10.176;2023-02-21T01:00:16;8.80;99.90
7030;DHT22;3556;53.500;10.176;2023-02-21T01:03:00;8.80;99.90
7030;DHT22;3556;53.500;10.176;2023-02-21T01:05:44;8.80;99.90
7030;DHT22;3556;53.500;10.176;2023-02-21T01:08:28;8.80;99.90
7030;DHT22;3556;53.500;10.176;2023-02-21T01:11:17;8.80;99.90
7030;DHT22;3556;53.500;10.176;2023-02-21T01:14:02;8.80;99.90
7030;DHT22;3556;53.500;10.176;2023-02-21T01:16:47;8.80;99.90
7030;DHT22;3556;53.500;10.176;2023-02-21T01:19:31;8.80;99.90
7030;DHT22;3556;53.500;10.176;2023-02-21T01:22:16;8.80;99.90
7030;DHT22;3556;53.500;10.176;2023-02-21T01:25:00;8.70;99.90
7030;DHT22;3556;53.500;10.176;2023-02-21T01:27:44;8.70;99.90
7030;DHT22;3556;53.500;10.176;2023-02-21T01:30:28;8.80;99.90
7030;DHT22;3556;53.500;10.176;2023-02-21T01:33:12;8.70;99.90
7030;DHT22;3556;53.500;10.176;2023-02-21T01:35:56;8.70;99.90
7030;DHT22;3556;53.500;10.176;2023-02-21T01:38:40;8.70;99.90
7030;DHT22;3556;53.500;10.176;2023-02-21T01:41:24;8.70;99.90
7030;DHT22;3556;53.500;10.176;2023-02-21T01:44:35;8.70;99.90
7030;DHT22;3556;53.500;10.176;2023-02-21T01:47:20;8.70;99.90
7030;DHT22;3556;53.500;10.176;2023-02-21T01:50:10;8.70;99.90
7030;DHT22;3556;53.500;10.176;2023-02-21T01:52:55;8.70;99.90
7030;DHT22;3556;53.500;10.176;2023-02-21T01:55:40;8.70;99.90
7030;DHT22;3556;53.500;10.176;2023-02-21T01:58:26;8.70;99.90
7030;DHT22;3556;53.500;10.176;2023-02-21T02:01:17;8.60;99.90
7030;DHT22;3556;53.500;10.176;2023-02-21T02:04:02;8.60;99.90
7030;DHT22;3556;53.500;10.176;2023-02-21T02:06:47;8.60;99.90
7030;DHT22;3556;53.500;10.176;2023-02-21T02:09:31;8.60;99.90
7030;DHT22;3556;53.500;10.176;2023-02-21T02:12:34;8.60;99.90
7030;DHT22;3556;53.500;10.176;2023-02-21T02:27:23;8.60;99.90
7030;DHT22;3556;53.500;10.176;2023-02-21T02:29:44;8.60;99.90
7030;DHT22;3556;53.500;10.176;2023-02-21T02:35:21;8.60;99.90
7030;DHT22;3556;53.500;10.176;2023-02-21T02:37:56;8.50;99.90
7030;DHT22;3556;53.500;10.176;2023-02-21T02:40:42;8.50;99.90
7030;DHT22;3556;53.500;10.176;2023-02-21T02:43:34;8.60;99.90
7030;DHT22;3556;53.500;10.176;2023-02-21T02:46:14;8.50;99.90
7030;DHT22;3556;53.500;10.176;2023-02-21T02:49:03;8.60;99.90
7030;DHT22;3556;53.500;10.176;2023-02-21T02:51:32;8.50;99.90
7030;DHT22;3556;53.500;10.176;2023-02-21T02:53:58;8.50;99.90
7030;DHT22;3556;53.500;10.176;2023-02-21T02:56:24;8.50;99.90
7030;DHT22;3556;53.500;10.176;2023-02-21T02:59:10;8.50;99.90
7030;DHT22;3556;53.500;10.176;2023-02-21T03:07:16;8.50;99.90
7030;DHT22;3556;53.500;10.176;2023-02-21T03:11:01;8.50;99.90
7030;DHT22;3556;53.500;10.176;2023-02-21T03:16:03;8.50;99.90
7030;DHT22;3556;53.500;10.176;2023-02-21T03:18:47;8.50;99.90
7030;DHT22;3556;53.500;10.176;2023-02-21T03:21:23;8.50;99.90
7030;DHT22;3556;53.500;10.176;2023-02-21T03:23:52;8.50;99.90
7030;DHT22;3556;53.500;10.176;2023-02-21T03:26:19;8.50;99.90
7030;DHT22;3556;53.500;10.176;2023-02-21T03:28:45;8.50;99.90
7030;DHT22;3556;53.500;10.176;2023-02-21T03:31:13;8.50;99.90
7030;DHT22;3556;53.500;10.176;2023-02-21T03:33:40;8.50;99.90
7030;DHT22;3556;53.500;10.176;2023-02-21T03:36:07;8.50;99.90
7030;DHT22;3556;53.500;10.176;2023-02-21T03:38:34;8.50;99.90
7030;DHT22;3556;53.500;10.176;2023-02-21T03:41:00;8.50;99.90
7030;DHT22;3556;53.500;10.176;2023-02-21T03:43:25;8.40;99.90
7030;DHT22;3556;53.500;10.176;2023-02-21T03:45:51;8.40;99.90
7030;DHT22;3556;53.500;10.176;2023-02-21T03:48:17;8.40;99.90
7030;DHT22;3556;53.500;10.176;2023-02-21T03:50:43;8.50;99.90
7030;DHT22;3556;53.500;10.176;2023-02-21T03:53:09;8.40;99.90
7030;DHT22;3556;53.500;10.176;2023-02-21T03:55:36;8.40;99.90
7030;DHT22;3556;53.500;10.176;2023-02-21T03:58:01;8.40;99.90
7030;DHT22;3556;53.500;10.176;2023-02-21T04:00:27;8.40;99.90
7030;DHT22;3556;53.500;10.176;2023-02-21T04:02:53;8.40;99.90
7030;DHT22;3556;53.500;10.176;2023-02-21T04:05:18;8.40;99.90
7030;DHT22;3556;53.500;10.176;2023-02-21T04:07:44;8.30;99.90
7030;DHT22;3556;53.500;10.176;2023-02-21T04:10:09;8.30;99.90
7030;DHT22;3556;53.500;10.176;2023-02-21T04:12:35;8.40;99.90
7030;DHT22;3556;53.500;10.176;2023-02-21T04:15:01;8.30;99.90
7030;DHT22;3556;53.500;10.176;2023-02-21T04:17:26;8.30;99.90
7030;DHT22;3556;53.500;10.176;2023-02-21T04:19:52;8.30;99.90
7030;DHT22;3556;53.500;10.176;2023-02-21T04:22:17;8.30;99.90
7030;DHT22;3556;53.500;10.176;2023-02-21T04:24:43;8.30;99.90
7030;DHT22;3556;53.500;10.176;2023-02-21T04:27:09;8.30;99.90
7030;DHT22;3556;53.500;10.176;2023-02-21T04:29:35;8.30;99.90
7030;DHT22;3556;53.500;10.176;2023-02-21T04:32:00;8.30;99.90
7030;DHT22;3556;53.500;10.176;2023-02-21T04:34:27;8.30;99.90
7030;DHT22;3556;53.500;10.176;2023-02-21T04:36:53;8.30;99.90
7030;DHT22;3556;53.500;10.176;2023-02-21T04:39:18;8.20;99.90
7030;DHT22;3556;53.500;10.176;2023-02-21T04:41:44;8.20;99.90
7030;DHT22;3556;53.500;10.176;2023-02-21T04:44:10;8.20;99.90
7030;DHT22;3556;53.500;10.176;2023-02-21T04:46:36;8.20;99.90
7030;DHT22;3556;53.500;10.176;2023-02-21T04:49:02;8.20;99.90
7030;DHT22;3556;53.500;10.176;2023-02-21T04:51:27;8.20;99.90
7030;DHT22;3556;53.500;10.176;2023-02-21T04:53:54;8.20;99.90
7030;DHT22;3556;53.500;10.176;2023-02-21T04:56:23;8.20;99.90
7030;DHT22;3556;53.500;10.176;2023-02-21T04:58:49;8.20;99.90
7030;DHT22;3556;53.500;10.176;2023-02-21T05:01:16;8.20;99.90
7030;DHT22;3556;53.500;10.176;2023-02-21T05:03:43;8.10;99.90
7030;DHT22;3556;53.500;10.176;2023-02-21T05:06:08;8.10;99.90
7030;DHT22;3556;53.500;10.176;2023-02-21T05:08:35;8.00;99.90
7030;DHT22;3556;53.500;10.176;2023-02-21T05:11:01;8.00;99.90
7030;DHT22;3556;53.500;10.176;2023-02-21T05:13:27;7.90;99.90
7030;DHT22;3556;53.500;10.176;2023-02-21T05:15:52;7.90;99.90
7030;DHT22;3556;53.500;10.176;2023-02-21T05:18:18;7.80;99.90
7030;DHT22;3556;53.500;10.176;2023-02-21T05:20:49;7.70;99.90
7030;DHT22;3556;53.500;10.176;2023-02-21T05:23:16;7.70;99.90
7030;DHT22;3556;53.500;10.176;2023-02-21T05:25:43;7.70;99.90
7030;DHT22;3556;53.500;10.176;2023-02-21T05:28:09;7.70;99.90
7030;DHT22;3556;53.500;10.176;2023-02-21T05:30:35;7.70;99.90
7030;DHT22;3556;53.500;10.176;2023-02-21T05:33:01;7.70;99.90
7030;DHT22;3556;53.500;10.176;2023-02-21T05:35:27;7.70;99.90
7030;DHT22;3556;53.500;10.176;2023-02-21T05:37:52;7.70;99.90
7030;DHT22;3556;53.500;10.176;2023-02-21T05:40:18;7.70;99.90
7030;DHT22;3556;53.500;10.176;2023-02-21T05:42:45;7.80;99.90
7030;DHT22;3556;53.500;10.176;2023-02-21T05:45:11;7.80;99.90
7030;DHT22;3556;53.500;10.176;2023-02-21T05:47:37;7.80;99.90
7030;DHT22;3556;53.500;10.176;2023-02-21T05:50:03;7.80;99.90
7030;DHT22;3556;53.500;10.176;2023-02-21T05:52:29;7.80;99.90
7030;DHT22;3556;53.500;10.176;2023-02-21T05:54:55;7.80;99.90
7030;DHT22;3556;53.500;10.176;2023-02-21T05:57:21;7.70;99.90
7030;DHT22;3556;53.500;10.176;2023-02-21T05:59:46;7.70;99.90
7030;DHT22;3556;53.500;10.176;2023-02-21T06:02:15;7.70;99.90
7030;DHT22;3556;53.500;10.176;2023-02-21T06:04:41;7.70;99.90
7030;DHT22;3556;53.500;10.176;2023-02-21T06:07:07;7.70;99.90
7030;DHT22;3556;53.500;10.176;2023-02-21T06:09:32;7.70;99.90
7030;DHT22;3556;53.500;10.176;2023-02-21T06:11:58;7.70;99.90
7030;DHT22;3556;53.500;10.176;2023-02-21T06:14:25;7.60;99.90
7030;DHT22;3556;53.500;10.176;2023-02-21T06:16:51;7.60;99.90
7030;DHT22;3556;53.500;10.176;2023-02-21T06:19:17;7.60;99.90
7030;DHT22;3556;53.500;10.176;2023-02-21T06:21:43;7.60;99.90
7030;DHT22;3556;53.500;10.176;2023-02-21T06:24:10;7.60;99.90
7030;DHT22;3556;53.500;10.176;2023-02-21T06:26:36;7.60;99.90
7030;DHT22;3556;53.500;10.176;2023-02-21T06:29:05;7.60;99.90
7030;DHT22;3556;53.500;10.176;2023-02-21T06:31:31;7.60;99.90
7030;DHT22;3556;53.500;10.176;2023-02-21T06:33:57;7.60;99.90
7030;DHT22;3556;53.500;10.176;2023-02-21T06:36:25;7.60;99.90
7030;DHT22;3556;53.500;10.176;2023-02-21T06:38:53;7.60;99.90
7030;DHT22;3556;53.500;10.176;2023-02-21T06:41:23;7.60;99.90
7030;DHT22;3556;53.500;10.176;2023-02-21T06:43:52;7.60;99.90
7030;DHT22;3556;53.500;10.176;2023-02-21T06:46:21;7.60;99.90
7030;DHT22;3556;53.500;10.176;2023-02-21T06:48:47;7.60;99.90
7030;DHT22;3556;53.500;10.176;2023-02-21T06:51:13;7.60;99.90
7030;DHT22;3556;53.500;10.176;2023-02-21T06:53:42;7.60;99.90
7030;DHT22;3556;53.500;10.176;2023-02-21T06:56:08;7.60;99.90
7030;DHT22;3556;53.500;10.176;2023-02-21T06:58:34;7.60;99.90
7030;DHT22;3556;53.500;10.176;2023-02-21T07:01:00;7.60;99.90
7030;DHT22;3556;53.500;10.176;2023-02-21T07:03:26;7.60;99.90
7030;DHT22;3556;53.500;10.176;2023-02-21T07:05:52;7.60;99.90
7030;DHT22;3556;53.500;10.176;2023-02-21T07:08:17;7.60;99.90
7030;DHT22;3556;53.500;10.176;2023-02-21T07:10:43;7.60;99.90
7030;DHT22;3556;53.500;10.176;2023-02-21T07:13:09;7.70;99.90
7030;DHT22;3556;53.500;10.176;2023-02-21T07:15:35;7.70;99.90
7030;DHT22;3556;53.500;10.176;2023-02-21T07:18:00;7.70;99.90
7030;DHT22;3556;53.500;10.176;2023-02-21T07:20:26;7.70;99.90
7030;DHT22;3556;53.500;10.176;2023-02-21T07:22:52;7.70;99.90
7030;DHT22;3556;53.500;10.176;2023-02-21T07:25:20;7.70;99.90
7030;DHT22;3556;53.500;10.176;2023-02-21T07:27:47;7.70;99.90
7030;DHT22;3556;53.500;10.176;2023-02-21T07:30:14;7.70;99.90
7030;DHT22;3556;53.500;10.176;2023-02-21T07:32:40;7.80;99.90
7030;DHT22;3556;53.500;10.176;2023-02-21T07:35:06;7.80;99.90
7030;DHT22;3556;53.500;10.176;2023-02-21T07:37:31;7.80;99.90
7030;DHT22;3556;53.500;10.176;2023-02-21T07:39:57;7.80;99.90
7030;DHT22;3556;53.500;10.176;2023-02-21T07:42:23;7.80;99.90
7030;DHT22;3556;53.500;10.176;2023-02-21T07:44:54;7.90;99.90
7030;DHT22;3556;53.500;10.176;2023-02-21T07:47:21;7.90;99.90
7030;DHT22;3556;53.500;10.176;2023-02-21T07:49:46;7.90;99.90
7030;DHT22;3556;53.500;10.176;2023-02-21T07:52:12;8.00;99.90
7030;DHT22;3556;53.500;10.176;2023-02-21T07:54:38;8.00;99.90
7030;DHT22;3556;53.500;10.176;2023-02-21T07:57:03;8.10;99.90
7030;DHT22;3556;53.500;10.176;2023-02-21T07:59:29;8.10;99.90
7030;DHT22;3556;53.500;10.176;2023-02-21T08:01:55;8.10;99.90
7030;DHT22;3556;53.500;10.176;2023-02-21T08:04:21;8.10;99.90
7030;DHT22;3556;53.500;10.176;2023-02-21T08:06:48;8.20;99.90
7030;DHT22;3556;53.500;10.176;2023-02-21T08:09:14;8.20;99.90
7030;DHT22;3556;53.500;10.176;2023-02-21T08:11:40;8.20;99.90
7030;DHT22;3556;53.500;10.176;2023-02-21T08:14:05;8.20;99.90
7030;DHT22;3556;53.500;10.176;2023-02-21T08:16:31;8.30;99.90
7030;DHT22;3556;53.500;10.176;2023-02-21T08:18:57;8.40;99.90
7030;DHT22;3556;53.500;10.176;2023-02-21T08:21:23;8.50;99.90
7030;DHT22;3556;53.500;10.176;2023-02-21T08:23:53;8.50;99.90
7030;DHT22;3556;53.500;10.176;2023-02-21T08:26:20;8.60;99.90
7030;DHT22;3556;53.500;10.176;2023-02-21T08:28:45;8.60;99.90
7030;DHT22;3556;53.500;10.176;2023-02-21T08:31:11;8.70;99.90
7030;DHT22;3556;53.500;10.176;2023-02-21T08:33:37;8.80;99.90
7030;DHT22;3556;53.500;10.176;2023-02-21T08:36:02;8.80;99.90
7030;DHT22;3556;53.500;10.176;2023-02-21T08:38:28;8.90;99.90
7030;DHT22;3556;53.500;10.176;2023-02-21T08:40:54;8.90;99.90
7030;DHT22;3556;53.500;10.176;2023-02-21T08:43:19;8.90;99.90
7030;DHT22;3556;53.500;10.176;2023-02-21T08:45:45;8.90;99.90
7030;DHT22;3556;53.500;10.176;2023-02-21T08:48:11;8.90;99.90
7030;DHT22;3556;53.500;10.176;2023-02-21T08:50:37;8.90;99.90
7030;DHT22;3556;53.500;10.176;2023-02-21T08:53:02;8.90;99.90
7030;DHT22;3556;53.500;10.176;2023-02-21T08:55:28;8.90;99.90
7030;DHT22;3556;53.500;10.176;2023-02-21T08:57:54;8.90;99.90
7030;DHT22;3556;53.500;10.176;2023-02-21T09:00:22;9.00;99.90
7030;DHT22;3556;53.500;10.176;2023-02-21T09:02:51;9.00;99.90
7030;DHT22;3556;53.500;10.176;2023-02-21T09:05:21;9.10;99.90
7030;DHT22;3556;53.500;10.176;2023-02-21T09:07:49;9.10;99.90
7030;DHT22;3556;53.500;10.176;2023-02-21T09:10:17;9.20;99.90
7030;DHT22;3556;53.500;10.176;2023-02-21T09:12:43;9.20;99.90
7030;DHT22;3556;53.500;10.176;2023-02-21T09:15:09;9.20;99.90
7030;DHT22;3556;53.500;10.176;2023-02-21T09:17:35;9.20;99.90
7030;DHT22;3556;53.500;10.176;2023-02-21T09:20:03;9.20;99.90
7030;DHT22;3556;53.500;10.176;2023-02-21T09:22:32;9.10;99.90
7030;DHT22;3556;53.500;10.176;2023-02-21T09:24:58;9.10;99.90
7030;DHT22;3556;53.500;10.176;2023-02-21T09:27:24;9.10;99.90
7030;DHT22;3556;53.500;10.176;2023-02-21T09:30:09;9.10;99.90
7030;DHT22;3556;53.500;10.176;2023-02-21T09:32:35;9.10;99.90
7030;DHT22;3556;53.500;10.176;2023-02-21T09:35:02;9.20;99.90
7030;DHT22;3556;53.500;10.176;2023-02-21T09:37:28;9.20;99.90
7030;DHT22;3556;53.500;10.176;2023-02-21T09:39:54;9.20;99.90
7030;DHT22;3556;53.500;10.176;2023-02-21T09:42:23;9.20;99.90
7030;DHT22;3556;53.500;10.176;2023-02-21T09:44:50;9.20;99.90
7030;DHT22;3556;53.500;10.176;2023-02-21T09:47:30;9.20;99.90
7030;DHT22;3556;53.500;10.176;2023-02-21T09:50:03;9.20;99.90
7030;DHT22;3556;53.500;10.176;2023-02-21T09:52:35;9.20;99.90
7030;DHT22;3556;53.500;10.176;2023-02-21T09:58:01;9.20;99.90
7030;DHT22;3556;53.500;10.176;2023-02-21T10:00:37;9.30;99.90
7030;DHT22;3556;53.500;10.176;2023-02-21T10:05:48;9.30;99.90
7030;DHT22;3556;53.500;10.176;2023-02-21T10:08:25;9.40;99.90
7030;DHT22;3556;53.500;10.176;2023-02-21T10:14:33;9.50;99.90
7030;DHT22;3556;53.500;10.176;2023-02-21T10:16:47;9.50;99.90
7030;DHT22;3556;53.500;10.176;2023-02-21T10:21:56;9.60;99.90
7030;DHT22;3556;53.500;10.176;2023-02-21T10:24:26;9.70;99.90
7030;DHT22;3556;53.500;10.176;2023-02-21T10:26:59;9.70;99.90
7030;DHT22;3556;53.500;10.176;2023-02-21T10:29:38;9.80;99.90
7030;DHT22;3556;53.500;10.176;2023-02-21T10:32:07;9.80;99.90
7030;DHT22;3556;53.500;10.176;2023-02-21T10:34:34;9.80;99.90
7030;DHT22;3556;53.500;10.176;2023-02-21T10:39:48;9.80;99.90
7030;DHT22;3556;53.500;10.176;2023-02-21T10:42:27;9.80;99.90
7030;DHT22;3556;53.500;10.176;2023-02-21T10:44:55;9.90;99.90
7030;DHT22;3556;53.500;10.176;2023-02-21T10:47:38;9.90;99.90
7030;DHT22;3556;53.500;10.176;2023-02-21T10:50:10;10.10;99.90
7030;DHT22;3556;53.500;10.176;2023-02-21T10:52:56;10.30;99.90
7030;DHT22;3556;53.500;10.176;2023-02-21T10:55:22;10.40;99.90
7030;DHT22;3556;53.500;10.176;2023-02-21T10:57:54;10.50;99.90
7030;DHT22;3556;53.500;10.176;2023-02-21T11:00:30;10.60;99.90
7030;DHT22;3556;53.500;10.176;2023-02-21T11:03:05;10.70;99.90
7030;DHT22;3556;53.500;10.176;2023-02-21T11:05:31;10.70;99.90
7030;DHT22;3556;53.500;10.176;2023-02-21T11:08:06;10.90;99.90
7030;DHT22;3556;53.500;10.176;2023-02-21T11:10:42;11.00;99.90
7030;DHT22;3556;53.500;10.176;2023-02-21T11:13:12;11.00;99.90
7030;DHT22;3556;53.500;10.176;2023-02-21T11:15:39;11.20;99.90
7030;DHT22;3556;53.500;10.176;2023-02-21T11:18:22;11.20;99.90
7030;DHT22;3556;53.500;10.176;2023-02-21T11:20:49;11.30;99.90
7030;DHT22;3556;53.500;10.176;2023-02-21T11:23:20;11.40;99.90
7030;DHT22;3556;53.500;10.176;2023-02-21T11:25:47;11.40;99.90
7030;DHT22;3556;53.500;10.176;2023-02-21T11:33:24;11.60;99.90
7030;DHT22;3556;53.500;10.176;2023-02-21T11:35:51;11.60;99.90
7030;DHT22;3556;53.500;10.176;2023-02-21T11:38:42;11.60;99.90
7030;DHT22;3556;53.500;10.176;2023-02-21T11:41:22;11.90;99.90
7030;DHT22;3556;53.500;10.176;2023-02-21T11:43:53;12.10;99.90
7030;DHT22;3556;53.500;10.176;2023-02-21T11:46:43;12.20;99.90
7030;DHT22;3556;53.500;10.176;2023-02-21T11:51:48;11.90;99.90
7030;DHT22;3556;53.500;10.176;2023-02-21T11:54:14;11.70;99.90
7030;DHT22;3556;53.500;10.176;2023-02-21T11:57:48;11.60;99.90
7030;DHT22;3556;53.500;10.176;2023-02-21T12:02:55;11.70;99.90
7030;DHT22;3556;53.500;10.176;2023-02-21T12:16:34;11.20;99.90
7030;DHT22;3556;53.500;10.176;2023-02-21T12:27:20;11.00;99.90
7030;DHT22;3556;53.500;10.176;2023-02-21T12:32:46;10.90;99.90
7030;DHT22;3556;53.500;10.176;2023-02-21T12:38:01;10.80;99.90
7030;DHT22;3556;53.500;10.176;2023-02-21T12:47:00;10.60;99.90
7030;DHT22;3556;53.500;10.176;2023-02-21T12:49:31;10.50;99.90
7030;DHT22;3556;53.500;10.176;2023-02-21T13:00:24;10.30;99.90
7030;DHT22;3556;53.500;10.176;2023-02-21T13:05:55;10.20;99.90
7030;DHT22;3556;53.500;10.176;2023-02-21T13:08:28;10.20;99.90
7030;DHT22;3556;53.500;10.176;2023-02-21T13:13:33;10.10;99.90
7030;DHT22;3556;53.500;10.176;2023-02-21T13:16:04;10.10;99.90
7030;DHT22;3556;53.500;10.176;2023-02-21T13:18:52;10.10;99.90
7030;DHT22;3556;53.500;10.176;2023-02-21T13:32:59;9.90;99.90
7030;DHT22;3556;53.500;10.176;2023-02-21T13:35:30;9.90;99.90
7030;DHT22;3556;53.500;10.176;2023-02-21T13:37:57;9.90;99.90
7030;DHT22;3556;53.500;10.176;2023-02-21T13:40:32;10.00;99.90
7030;DHT22;3556;53.500;10.176;2023-02-21T13:43:06;10.00;99.90
7030;DHT22;3556;53.500;10.176;2023-02-21T13:45:34;10.10;99.90
7030;DHT22;3556;53.500;10.176;2023-02-21T13:53:17;10.30;99.90
7030;DHT22;3556;53.500;10.176;2023-02-21T13:58:31;10.30;99.90
7030;DHT22;3556;53.500;10.176;2023-02-21T14:01:20;10.20;99.90
7030;DHT22;3556;53.500;10.176;2023-02-21T14:03:50;10.10;99.90
7030;DHT22;3556;53.500;10.176;2023-02-21T14:06:23;10.10;99.90
7030;DHT22;3556;53.500;10.176;2023-02-21T14:09:02;10.10;99.90
7030;DHT22;3556;53.500;10.176;2023-02-21T14:11:36;10.10;99.90
7030;DHT22;3556;53.500;10.176;2023-02-21T14:14:26;10.10;99.90
7030;DHT22;3556;53.500;10.176;2023-02-21T14:16:56;10.10;99.90
7030;DHT22;3556;53.500;10.176;2023-02-21T14:19:43;10.00;99.90
7030;DHT22;3556;53.500;10.176;2023-02-21T14:22:23;10.00;99.90
7030;DHT22;3556;53.500;10.176;2023-02-21T14:24:51;10.00;99.90
7030;DHT22;3556;53.500;10.176;2023-02-21T14:32:40;10.00;99.90
7030;DHT22;3556;53.500;10.176;2023-02-21T14:46:12;10.10;99.90
7030;DHT22;3556;53.500;10.176;2023-02-21T14:57:42;10.00;99.90
7030;DHT22;3556;53.500;10.176;2023-02-21T15:00:29;10.00;99.90
7030;DHT22;3556;53.500;10.176;2023-02-21T15:03:11;10.00;99.90
7030;DHT22;3556;53.500;10.176;2023-02-21T15:05:41;10.00;99.90
7030;DHT22;3556;53.500;10.176;2023-02-21T15:08:16;9.90;99.90
7030;DHT22;3556;53.500;10.176;2023-02-21T15:10:43;9.80;99.90
7030;DHT22;3556;53.500;10.176;2023-02-21T15:13:29;9.70;99.90
7030;DHT22;3556;53.500;10.176;2023-02-21T15:15:57;9.60;99.90
7030;DHT22;3556;53.500;10.176;2023-02-21T15:18:35;9.60;99.90
7030;DHT22;3556;53.500;10.176;2023-02-21T15:21:21;9.60;99.90
7030;DHT22;3556;53.500;10.176;2023-02-21T15:24:05;9.50;99.90
7030;DHT22;3556;53.500;10.176;2023-02-21T15:26:37;9.50;99.90
7030;DHT22;3556;53.500;10.176;2023-02-21T15:31:38;9.50;99.90
7030;DHT22;3556;53.500;10.176;2023-02-21T15:34:04;9.50;99.90
7030;DHT22;3556;53.500;10.176;2023-02-21T15:36:31;9.50;99.90
7030;DHT22;3556;53.500;10.176;2023-02-21T15:39:04;9.40;99.90
7030;DHT22;3556;53.500;10.176;2023-02-21T15:41:35;9.40;99.90
7030;DHT22;3556;53.500;10.176;2023-02-21T15:46:44;9.40;99.90
7030;DHT22;3556;53.500;10.176;2023-02-21T15:49:30;9.30;99.90
7030;DHT22;3556;53.500;10.176;2023-02-21T15:51:59;9.30;99.90
7030;DHT22;3556;53.500;10.176;2023-02-21T15:54:30;9.30;99.90
7030;DHT22;3556;53.500;10.176;2023-02-21T15:57:25;9.20;99.90
7030;DHT22;3556;53.500;10.176;2023-02-21T16:00:18;9.20;99.90
7030;DHT22;3556;53.500;10.176;2023-02-21T16:02:44;9.20;99.90
7030;DHT22;3556;53.500;10.176;2023-02-21T16:05:28;9.20;99.90
7030;DHT22;3556;53.500;10.176;2023-02-21T16:08:01;9.20;99.90
7030;DHT22;3556;53.500;10.176;2023-02-21T16:10:29;9.20;99.90
7030;DHT22;3556;53.500;10.176;2023-02-21T16:12:57;9.20;99.90
7030;DHT22;3556;53.500;10.176;2023-02-21T16:15:32;9.20;99.90
7030;DHT22;3556;53.500;10.176;2023-02-21T16:18:02;9.10;99.90
7030;DHT22;3556;53.500;10.176;2023-02-21T16:20:37;9.10;99.90
7030;DHT22;3556;53.500;10.176;2023-02-21T16:23:23;9.10;99.90
7030;DHT22;3556;53.500;10.176;2023-02-21T16:28:24;9.00;99.90
7030;DHT22;3556;53.500;10.176;2023-02-21T16:30:50;9.00;99.90
7030;DHT22;3556;53.500;10.176;2023-02-21T16:33:16;8.90;99.90
7030;DHT22;3556;53.500;10.176;2023-02-21T16:35:42;8.90;99.90
7030;DHT22;3556;53.500;10.176;2023-02-21T16:38:17;8.80;99.90
7030;DHT22;3556;53.500;10.176;2023-02-21T16:40:43;8.70;99.90
7030;DHT22;3556;53.500;10.176;2023-02-21T16:43:16;8.70;99.90
7030;DHT22;3556;53.500;10.176;2023-02-21T16:45:41;8.60;99.90
7030;DHT22;3556;53.500;10.176;2023-02-21T16:48:14;8.60;99.90
7030;DHT22;3556;53.500;10.176;2023-02-21T16:50:40;8.50;99.90
7030;DHT22;3556;53.500;10.176;2023-02-21T16:53:08;8.50;99.90
7030;DHT22;3556;53.500;10.176;2023-02-21T16:55:37;8.50;99.90
7030;DHT22;3556;53.500;10.176;2023-02-21T16:58:06;8.50;99.90
7030;DHT22;3556;53.500;10.176;2023-02-21T17:00:32;8.50;99.90
7030;DHT22;3556;53.500;10.176;2023-02-21T17:02:59;8.50;99.90
7030;DHT22;3556;53.500;10.176;2023-02-21T17:05:25;8.50;99.90
7030;DHT22;3556;53.500;10.176;2023-02-21T17:07:52;8.50;99.90
7030;DHT22;3556;53.500;10.176;2023-02-21T17:10:18;8.40;99.90
7030;DHT22;3556;53.500;10.176;2023-02-21T17:12:44;8.40;99.90
7030;DHT22;3556;53.500;10.176;2023-02-21T17:15:10;8.40;99.90
7030;DHT22;3556;53.500;10.176;2023-02-21T17:17:37;8.40;99.90
7030;DHT22;3556;53.500;10.176;2023-02-21T17:20:03;8.40;99.90
7030;DHT22;3556;53.500;10.176;2023-02-21T17:22:29;8.40;99.90
7030;DHT22;3556;53.500;10.176;2023-02-21T17:24:55;8.40;99.90
7030;DHT22;3556;53.500;10.176;2023-02-21T17:27:21;8.40;99.90
7030;DHT22;3556;53.500;10.176;2023-02-21T17:29:47;8.50;99.90
7030;DHT22;3556;53.500;10.176;2023-02-21T17:32:13;8.40;99.90
7030;DHT22;3556;53.500;10.176;2023-02-21T17:34:41;8.40;99.90
7030;DHT22;3556;53.500;10.176;2023-02-21T17:37:07;8.40;99.90
7030;DHT22;3556;53.500;10.176;2023-02-21T17:39:34;8.30;99.90
7030;DHT22;3556;53.500;10.176;2023-02-21T17:42:00;8.40;99.90
7030;DHT22;3556;53.500;10.176;2023-02-21T17:44:26;8.30;99.90
7030;DHT22;3556;53.500;10.176;2023-02-21T17:46:54;8.40;99.90
7030;DHT22;3556;53.500;10.176;2023-02-21T17:49:22;8.30;99.90
7030;DHT22;3556;53.500;10.176;2023-02-21T17:51:49;8.30;99.90
7030;DHT22;3556;53.500;10.176;2023-02-21T17:54:21;8.30;99.90
7030;DHT22;3556;53.500;10.176;2023-02-21T17:56:47;8.30;99.90
7030;DHT22;3556;53.500;10.176;2023-02-21T17:59:14;8.30;99.90
7030;DHT22;3556;53.500;10.176;2023-02-21T18:01:40;8.30;99.90
7030;DHT22;3556;53.500;10.176;2023-02-21T18:04:06;8.30;99.90
7030;DHT22;3556;53.500;10.176;2023-02-21T18:06:32;8.30;99.90
7030;DHT22;3556;53.500;10.176;2023-02-21T18:08:57;8.40;99.90
7030;DHT22;3556;53.500;10.176;2023-02-21T18:11:24;8.30;99.90
7030;DHT22;3556;53.500;10.176;2023-02-21T18:13:51;8.30;99.90
7030;DHT22;3556;53.500;10.176;2023-02-21T18:16:17;8.30;99.90
7030;DHT22;3556;53.500;10.176;2023-02-21T18:18:43;8.30;99.90
7030;DHT22;3556;53.500;10.176;2023-02-21T18:21:09;8.30;99.90
7030;DHT22;3556;53.500;10.176;2023-02-21T18:23:35;8.30;99.90
7030;DHT22;3556;53.500;10.176;2023-02-21T18:26:03;8.30;99.90
7030;DHT22;3556;53.500;10.176;2023-02-21T18:28:29;8.30;99.90
7030;DHT22;3556;53.500;10.176;2023-02-21T18:30:56;8.30;99.90
7030;DHT22;3556;53.500;10.176;2023-02-21T18:33:23;8.30;99.90
7030;DHT22;3556;53.500;10.176;2023-02-21T18:35:52;8.30;99.90
7030;DHT22;3556;53.500;10.176;2023-02-21T18:38:18;8.30;99.90
7030;DHT22;3556;53.500;10.176;2023-02-21T18:40:45;8.30;99.90
7030;DHT22;3556;53.500;10.176;2023-02-21T18:43:25;8.20;99.90
7030;DHT22;3556;53.500;10.176;2023-02-21T18:45:52;8.20;99.90
7030;DHT22;3556;53.500;10.176;2023-02-21T18:48:19;8.20;99.90
7030;DHT22;3556;53.500;10.176;2023-02-21T18:50:45;8.20;99.90
7030;DHT22;3556;53.500;10.176;2023-02-21T18:53:12;8.20;99.90
7030;DHT22;3556;53.500;10.176;2023-02-21T18:55:38;8.20;99.90